sensor_id;sensor_type;location;lat;lon;timestamp;P1;durP1;ratioP1;P2;durP2;ratioP2
21258;SDS011;10787;53.364;-1.480;2024-03-25T00:01:55;16.20;;;7.90;;
21258;SDS011;10787;53.364;-1.480;2024-03-25T00:04:40;16.17;;;7.60;;
21258;SDS011;10787;53.364;-1.480;2024-03-25T00:07:24;15.33;;;7.50;;
21258;SDS011;10787;53.364;-1.480;2024-03-25T00:10:08;17.90;;;7.43;;
21258;SDS011;10787;53.364;-1.480;2024-03-25T00:12:53;14.17;;;7.13;;
21258;SDS011;10787;53.364;-1.480;2024-03-25T00:15:39;15.67;;;7.00;;
21258;SDS011;10787;53.364;-1.480;2024-03-25T00:18:24;19.37;;;7.10;;
21258;SDS011;10787;53.364;-1.480;2024-03-25T00:21:09;15.07;;;6.40;;
21258;SDS011;10787;53.364;-1.480;2024-03-25T00:23:53;17.47;;;6.87;;
21258;SDS011;10787;53.364;-1.480;2024-03-25T00:26:40;12.47;;;5.90;;
21258;SDS011;10787;53.364;-1.480;2024-03-25T00:29:24;13.07;;;5.70;;
21258;SDS011;10787;53.364;-1.480;2024-03-25T00:32:08;16.03;;;6.07;;
21258;SDS011;10787;53.364;-1.480;2024-03-25T00:34:53;13.30;;;5.83;;
21258;SDS011;10787;53.364;-1.480;2024-03-25T00:37:38;21.30;;;6.30;;
21258;SDS011;10787;53.364;-1.480;2024-03-25T00:40:22;13.13;;;5.77;;
21258;SDS011;10787;53.364;-1.480;2024-03-25T00:43:07;15.03;;;5.97;;
21258;SDS011;10787;53.364;-1.480;2024-03-25T00:45:51;11.93;;;5.70;;
21258;SDS011;10787;53.364;-1.480;2024-03-25T00:48:35;12.03;;;5.90;;
21258;SDS011;10787;53.364;-1.480;2024-03-25T00:51:21;14.03;;;5.97;;
21258;SDS011;10787;53.364;-1.480;2024-03-25T00:54:05;13.30;;;5.90;;
21258;SDS011;10787;53.364;-1.480;2024-03-25T00:56:49;13.97;;;5.73;;
21258;SDS011;10787;53.364;-1.480;2024-03-25T00:59:34;13.57;;;5.63;;
21258;SDS011;10787;53.364;-1.480;2024-03-25T01:02:19;12.73;;;5.20;;
21258;SDS011;10787;53.364;-1.480;2024-03-25T01:05:04;13.37;;;5.17;;
21258;SDS011;10787;53.364;-1.480;2024-03-25T01:07:49;15.07;;;5.20;;
21258;SDS011;10787;53.364;-1.480;2024-03-25T01:10:33;13.87;;;5.43;;
21258;SDS011;10787;53.364;-1.480;2024-03-25T01:13:17;14.97;;;5.63;;
21258;SDS011;10787;53.364;-1.480;2024-03-25T01:16:01;12.47;;;5.17;;
21258;SDS011;10787;53.364;-1.480;2024-03-25T01:18:46;15.87;;;5.83;;
21258;SDS011;10787;53.364;-1.480;2024-03-25T01:21:30;13.93;;;5.57;;
21258;SDS011;10787;53.364;-1.480;2024-03-25T01:24:14;12.17;;;5.23;;
21258;SDS011;10787;53.364;-1.480;2024-03-25T01:26:58;10.47;;;4.83;;
21258;SDS011;10787;53.364;-1.480;2024-03-25T01:29:43;14.70;;;5.40;;
21258;SDS011;10787;53.364;-1.480;2024-03-25T01:32:27;13.50;;;5.40;;
21258;SDS011;10787;53.364;-1.480;2024-03-25T01:35:12;18.67;;;5.47;;
21258;SDS011;10787;53.364;-1.480;2024-03-25T01:37:56;12.20;;;5.17;;
21258;SDS011;10787;53.364;-1.480;2024-03-25T01:40:41;11.57;;;5.30;;
21258;SDS011;10787;53.364;-1.480;2024-03-25T01:43:26;11.43;;;5.17;;
21258;SDS011;10787;53.364;-1.480;2024-03-25T01:46:10;15.23;;;5.87;;
21258;SDS011;10787;53.364;-1.480;2024-03-25T01:48:54;15.73;;;6.50;;
21258;SDS011;10787;53.364;-1.480;2024-03-25T01:51:41;14.67;;;5.53;;
21258;SDS011;10787;53.364;-1.480;2024-03-25T01:54:26;14.50;;;6.10;;
21258;SDS011;10787;53.364;-1.480;2024-03-25T01:57:23;15.07;;;6.17;;
21258;SDS011;10787;53.364;-1.480;2024-03-25T02:00:07;13.70;;;5.77;;
21258;SDS011;10787;53.364;-1.480;2024-03-25T02:02:53;16.23;;;6.37;;
21258;SDS011;10787;53.364;-1.480;2024-03-25T02:05:38;13.47;;;6.07;;
21258;SDS011;10787;53.364;-1.480;2024-03-25T02:08:22;15.53;;;6.00;;
21258;SDS011;10787;53.364;-1.480;2024-03-25T02:11:08;18.00;;;6.30;;
21258;SDS011;10787;53.364;-1.480;2024-03-25T02:13:54;15.43;;;6.13;;
21258;SDS011;10787;53.364;-1.480;2024-03-25T02:16:39;15.13;;;6.10;;
21258;SDS011;10787;53.364;-1.480;2024-03-25T02:19:23;16.83;;;6.50;;
21258;SDS011;10787;53.364;-1.480;2024-03-25T02:22:08;15.83;;;6.53;;
21258;SDS011;10787;53.364;-1.480;2024-03-25T02:24:52;16.97;;;6.60;;
21258;SDS011;10787;53.364;-1.480;2024-03-25T02:27:37;17.00;;;6.53;;
21258;SDS011;10787;53.364;-1.480;2024-03-25T02:30:22;16.57;;;6.80;;
21258;SDS011;10787;53.364;-1.480;2024-03-25T02:33:06;14.97;;;6.67;;
21258;SDS011;10787;53.364;-1.480;2024-03-25T02:35:50;16.00;;;7.20;;
21258;SDS011;10787;53.364;-1.480;2024-03-25T02:38:35;14.73;;;6.77;;
21258;SDS011;10787;53.364;-1.480;2024-03-25T02:41:19;14.93;;;6.70;;
21258;SDS011;10787;53.364;-1.480;2024-03-25T02:44:05;16.23;;;7.30;;
21258;SDS011;10787;53.364;-1.480;2024-03-25T02:46:50;16.20;;;7.40;;
21258;SDS011;10787;53.364;-1.480;2024-03-25T02:49:36;13.20;;;6.77;;
21258;SDS011;10787;53.364;-1.480;2024-03-25T02:52:20;13.83;;;6.97;;
21258;SDS011;10787;53.364;-1.480;2024-03-25T02:55:04;14.93;;;7.20;;
21258;SDS011;10787;53.364;-1.480;2024-03-25T02:57:49;15.40;;;6.77;;
21258;SDS011;10787;53.364;-1.480;2024-03-25T03:00:33;15.83;;;7.27;;
21258;SDS011;10787;53.364;-1.480;2024-03-25T03:03:17;14.93;;;6.97;;
21258;SDS011;10787;53.364;-1.480;2024-03-25T03:06:01;13.27;;;6.70;;
21258;SDS011;10787;53.364;-1.480;2024-03-25T03:08:46;16.83;;;7.37;;
21258;SDS011;10787;53.364;-1.480;2024-03-25T03:11:30;12.27;;;6.97;;
21258;SDS011;10787;53.364;-1.480;2024-03-25T03:14:14;14.30;;;6.50;;
21258;SDS011;10787;53.364;-1.480;2024-03-25T03:16:59;14.50;;;6.33;;
21258;SDS011;10787;53.364;-1.480;2024-03-25T03:19:48;15.10;;;6.63;;
21258;SDS011;10787;53.364;-1.480;2024-03-25T03:22:33;12.27;;;6.83;;
21258;SDS011;10787;53.364;-1.480;2024-03-25T03:25:17;12.63;;;6.43;;
21258;SDS011;10787;53.364;-1.480;2024-03-25T03:28:01;13.20;;;6.53;;
21258;SDS011;10787;53.364;-1.480;2024-03-25T03:30:46;13.40;;;6.50;;
21258;SDS011;10787;53.364;-1.480;2024-03-25T03:33:31;14.47;;;6.37;;
21258;SDS011;10787;53.364;-1.480;2024-03-25T03:36:19;13.00;;;6.20;;
21258;SDS011;10787;53.364;-1.480;2024-03-25T03:39:04;16.87;;;6.83;;
21258;SDS011;10787;53.364;-1.480;2024-03-25T03:41:49;12.93;;;6.40;;
21258;SDS011;10787;53.364;-1.480;2024-03-25T03:44:33;13.50;;;6.73;;
21258;SDS011;10787;53.364;-1.480;2024-03-25T03:47:17;14.47;;;6.70;;
21258;SDS011;10787;53.364;-1.480;2024-03-25T03:50:01;14.33;;;6.73;;
21258;SDS011;10787;53.364;-1.480;2024-03-25T03:52:46;17.67;;;6.87;;
21258;SDS011;10787;53.364;-1.480;2024-03-25T03:55:30;13.30;;;6.30;;
21258;SDS011;10787;53.364;-1.480;2024-03-25T03:58:14;15.53;;;6.83;;
21258;SDS011;10787;53.364;-1.480;2024-03-25T04:00:58;14.33;;;6.17;;
21258;SDS011;10787;53.364;-1.480;2024-03-25T04:03:42;15.70;;;6.70;;
21258;SDS011;10787;53.364;-1.480;2024-03-25T04:06:26;14.07;;;6.50;;
21258;SDS011;10787;53.364;-1.480;2024-03-25T04:09:10;15.30;;;7.03;;
21258;SDS011;10787;53.364;-1.480;2024-03-25T04:11:54;17.03;;;6.87;;
21258;SDS011;10787;53.364;-1.480;2024-03-25T04:14:38;13.33;;;7.23;;
21258;SDS011;10787;53.364;-1.480;2024-03-25T04:17:22;13.43;;;6.37;;
21258;SDS011;10787;53.364;-1.480;2024-03-25T04:20:07;14.90;;;7.00;;
21258;SDS011;10787;53.364;-1.480;2024-03-25T04:22:54;16.13;;;6.87;;
21258;SDS011;10787;53.364;-1.480;2024-03-25T04:25:39;18.67;;;7.03;;
21258;SDS011;10787;53.364;-1.480;2024-03-25T04:28:23;16.30;;;7.20;;
21258;SDS011;10787;53.364;-1.480;2024-03-25T04:31:07;12.97;;;7.40;;
21258;SDS011;10787;53.364;-1.480;2024-03-25T04:33:52;14.27;;;7.00;;
21258;SDS011;10787;53.364;-1.480;2024-03-25T04:36:36;18.43;;;7.33;;
21258;SDS011;10787;53.364;-1.480;2024-03-25T04:39:21;13.40;;;6.83;;
21258;SDS011;10787;53.364;-1.480;2024-03-25T04:42:06;14.57;;;7.13;;
21258;SDS011;10787;53.364;-1.480;2024-03-25T04:44:50;15.13;;;7.03;;
21258;SDS011;10787;53.364;-1.480;2024-03-25T04:47:35;18.67;;;7.00;;
21258;SDS011;10787;53.364;-1.480;2024-03-25T04:50:19;14.47;;;6.50;;
21258;SDS011;10787;53.364;-1.480;2024-03-25T04:53:03;13.97;;;6.93;;
21258;SDS011;10787;53.364;-1.480;2024-03-25T04:55:47;15.57;;;7.03;;
21258;SDS011;10787;53.364;-1.480;2024-03-25T04:58:31;14.13;;;6.77;;
21258;SDS011;10787;53.364;-1.480;2024-03-25T05:01:15;15.03;;;7.47;;
21258;SDS011;10787;53.364;-1.480;2024-03-25T05:03:59;13.87;;;6.80;;
21258;SDS011;10787;53.364;-1.480;2024-03-25T05:06:43;17.57;;;7.23;;
21258;SDS011;10787;53.364;-1.480;2024-03-25T05:09:27;17.83;;;6.83;;
21258;SDS011;10787;53.364;-1.480;2024-03-25T05:12:11;20.23;;;6.77;;
21258;SDS011;10787;53.364;-1.480;2024-03-25T05:14:55;14.87;;;6.57;;
21258;SDS011;10787;53.364;-1.480;2024-03-25T05:17:40;16.67;;;7.27;;
21258;SDS011;10787;53.364;-1.480;2024-03-25T05:20:24;15.33;;;6.80;;
21258;SDS011;10787;53.364;-1.480;2024-03-25T05:23:10;14.87;;;6.97;;
21258;SDS011;10787;53.364;-1.480;2024-03-25T05:25:54;14.43;;;7.17;;
21258;SDS011;10787;53.364;-1.480;2024-03-25T05:28:38;14.47;;;6.83;;
21258;SDS011;10787;53.364;-1.480;2024-03-25T05:31:23;16.10;;;7.10;;
21258;SDS011;10787;53.364;-1.480;2024-03-25T05:34:07;13.43;;;6.67;;
21258;SDS011;10787;53.364;-1.480;2024-03-25T05:36:53;17.70;;;7.30;;
21258;SDS011;10787;53.364;-1.480;2024-03-25T05:39:38;16.23;;;7.10;;
21258;SDS011;10787;53.364;-1.480;2024-03-25T05:42:22;19.53;;;7.17;;
21258;SDS011;10787;53.364;-1.480;2024-03-25T05:45:06;12.33;;;6.50;;
21258;SDS011;10787;53.364;-1.480;2024-03-25T05:47:53;16.37;;;6.33;;
21258;SDS011;10787;53.364;-1.480;2024-03-25T05:50:36;13.77;;;6.77;;
21258;SDS011;10787;53.364;-1.480;2024-03-25T05:53:20;14.03;;;6.37;;
21258;SDS011;10787;53.364;-1.480;2024-03-25T05:56:05;14.80;;;5.93;;
21258;SDS011;10787;53.364;-1.480;2024-03-25T05:58:49;12.87;;;6.20;;
21258;SDS011;10787;53.364;-1.480;2024-03-25T06:01:34;12.70;;;7.00;;
21258;SDS011;10787;53.364;-1.480;2024-03-25T06:04:20;13.80;;;6.80;;
21258;SDS011;10787;53.364;-1.480;2024-03-25T06:07:05;12.77;;;6.43;;
21258;SDS011;10787;53.364;-1.480;2024-03-25T06:09:49;11.43;;;6.43;;
21258;SDS011;10787;53.364;-1.480;2024-03-25T06:12:34;13.80;;;7.10;;
21258;SDS011;10787;53.364;-1.480;2024-03-25T06:15:17;14.40;;;7.03;;
21258;SDS011;10787;53.364;-1.480;2024-03-25T06:18:02;11.83;;;6.20;;
21258;SDS011;10787;53.364;-1.480;2024-03-25T06:20:46;12.43;;;5.93;;
21258;SDS011;10787;53.364;-1.480;2024-03-25T06:23:31;15.30;;;6.43;;
21258;SDS011;10787;53.364;-1.480;2024-03-25T06:26:15;14.07;;;6.40;;
21258;SDS011;10787;53.364;-1.480;2024-03-25T06:29:00;11.00;;;6.90;;
21258;SDS011;10787;53.364;-1.480;2024-03-25T06:31:44;14.83;;;6.43;;
21258;SDS011;10787;53.364;-1.480;2024-03-25T06:34:47;13.27;;;7.00;;
21258;SDS011;10787;53.364;-1.480;2024-03-25T06:37:31;12.90;;;6.40;;
21258;SDS011;10787;53.364;-1.480;2024-03-25T06:40:15;15.07;;;6.80;;
21258;SDS011;10787;53.364;-1.480;2024-03-25T06:43:00;13.07;;;6.80;;
21258;SDS011;10787;53.364;-1.480;2024-03-25T06:45:45;14.60;;;6.13;;
21258;SDS011;10787;53.364;-1.480;2024-03-25T06:48:29;15.60;;;6.37;;
21258;SDS011;10787;53.364;-1.480;2024-03-25T06:51:12;10.13;;;5.23;;
21258;SDS011;10787;53.364;-1.480;2024-03-25T06:53:56;12.47;;;5.37;;
21258;SDS011;10787;53.364;-1.480;2024-03-25T06:56:42;12.67;;;5.63;;
21258;SDS011;10787;53.364;-1.480;2024-03-25T06:59:26;10.43;;;5.73;;
21258;SDS011;10787;53.364;-1.480;2024-03-25T07:02:11;12.50;;;5.27;;
21258;SDS011;10787;53.364;-1.480;2024-03-25T07:04:55;13.47;;;5.53;;
21258;SDS011;10787;53.364;-1.480;2024-03-25T07:07:39;10.73;;;5.33;;
21258;SDS011;10787;53.364;-1.480;2024-03-25T07:10:24;9.73;;;5.47;;
21258;SDS011;10787;53.364;-1.480;2024-03-25T07:13:08;9.93;;;5.20;;
21258;SDS011;10787;53.364;-1.480;2024-03-25T07:15:53;12.63;;;5.40;;
21258;SDS011;10787;53.364;-1.480;2024-03-25T07:18:39;12.60;;;5.47;;
21258;SDS011;10787;53.364;-1.480;2024-03-25T07:21:23;11.10;;;5.73;;
21258;SDS011;10787;53.364;-1.480;2024-03-25T07:24:08;9.53;;;5.30;;
21258;SDS011;10787;53.364;-1.480;2024-03-25T07:26:52;11.77;;;5.00;;
21258;SDS011;10787;53.364;-1.480;2024-03-25T07:29:36;13.80;;;5.13;;
21258;SDS011;10787;53.364;-1.480;2024-03-25T07:32:20;10.07;;;5.07;;
21258;SDS011;10787;53.364;-1.480;2024-03-25T07:35:05;12.77;;;5.27;;
21258;SDS011;10787;53.364;-1.480;2024-03-25T07:37:51;12.40;;;4.97;;
21258;SDS011;10787;53.364;-1.480;2024-03-25T07:40:36;11.77;;;4.90;;
21258;SDS011;10787;53.364;-1.480;2024-03-25T07:43:20;11.93;;;5.20;;
21258;SDS011;10787;53.364;-1.480;2024-03-25T07:46:05;11.50;;;4.93;;
21258;SDS011;10787;53.364;-1.480;2024-03-25T07:48:48;15.37;;;5.23;;
21258;SDS011;10787;53.364;-1.480;2024-03-25T07:51:33;12.63;;;5.53;;
21258;SDS011;10787;53.364;-1.480;2024-03-25T07:54:19;11.37;;;4.60;;
21258;SDS011;10787;53.364;-1.480;2024-03-25T07:57:04;9.53;;;4.90;;
21258;SDS011;10787;53.364;-1.480;2024-03-25T07:59:48;11.97;;;5.03;;
21258;SDS011;10787;53.364;-1.480;2024-03-25T08:02:33;11.93;;;5.00;;
21258;SDS011;10787;53.364;-1.480;2024-03-25T08:05:17;12.20;;;4.90;;
21258;SDS011;10787;53.364;-1.480;2024-03-25T08:08:03;8.63;;;4.80;;
21258;SDS011;10787;53.364;-1.480;2024-03-25T08:10:47;11.03;;;4.90;;
21258;SDS011;10787;53.364;-1.480;2024-03-25T08:13:32;14.00;;;4.77;;
21258;SDS011;10787;53.364;-1.480;2024-03-25T08:16:16;12.50;;;4.77;;
21258;SDS011;10787;53.364;-1.480;2024-03-25T08:19:00;10.87;;;4.60;;
21258;SDS011;10787;53.364;-1.480;2024-03-25T08:21:44;12.00;;;4.67;;
21258;SDS011;10787;53.364;-1.480;2024-03-25T08:24:28;12.73;;;4.60;;
21258;SDS011;10787;53.364;-1.480;2024-03-25T08:27:13;16.30;;;4.60;;
21258;SDS011;10787;53.364;-1.480;2024-03-25T08:29:57;10.47;;;4.30;;
21258;SDS011;10787;53.364;-1.480;2024-03-25T08:32:41;13.97;;;4.87;;
21258;SDS011;10787;53.364;-1.480;2024-03-25T08:35:25;12.17;;;5.07;;
21258;SDS011;10787;53.364;-1.480;2024-03-25T08:38:09;11.80;;;5.37;;
21258;SDS011;10787;53.364;-1.480;2024-03-25T08:40:53;14.53;;;4.80;;
21258;SDS011;10787;53.364;-1.480;2024-03-25T08:43:37;9.93;;;4.37;;
21258;SDS011;10787;53.364;-1.480;2024-03-25T08:46:21;11.03;;;4.73;;
21258;SDS011;10787;53.364;-1.480;2024-03-25T08:49:05;12.07;;;4.37;;
21258;SDS011;10787;53.364;-1.480;2024-03-25T08:51:50;13.90;;;4.67;;
21258;SDS011;10787;53.364;-1.480;2024-03-25T08:54:35;12.20;;;4.80;;
21258;SDS011;10787;53.364;-1.480;2024-03-25T08:57:19;12.40;;;4.70;;
21258;SDS011;10787;53.364;-1.480;2024-03-25T09:00:03;11.57;;;4.67;;
21258;SDS011;10787;53.364;-1.480;2024-03-25T09:02:48;11.87;;;4.97;;
21258;SDS011;10787;53.364;-1.480;2024-03-25T09:05:32;11.03;;;4.90;;
21258;SDS011;10787;53.364;-1.480;2024-03-25T09:08:17;10.73;;;5.07;;
21258;SDS011;10787;53.364;-1.480;2024-03-25T09:11:01;11.47;;;4.93;;
21258;SDS011;10787;53.364;-1.480;2024-03-25T09:13:50;11.70;;;4.83;;
21258;SDS011;10787;53.364;-1.480;2024-03-25T09:16:34;11.50;;;5.03;;
21258;SDS011;10787;53.364;-1.480;2024-03-25T09:19:19;11.90;;;5.03;;
21258;SDS011;10787;53.364;-1.480;2024-03-25T09:22:03;10.57;;;5.67;;
21258;SDS011;10787;53.364;-1.480;2024-03-25T09:24:47;13.37;;;5.70;;
21258;SDS011;10787;53.364;-1.480;2024-03-25T09:27:33;16.97;;;6.40;;
21258;SDS011;10787;53.364;-1.480;2024-03-25T09:30:17;12.57;;;6.33;;
21258;SDS011;10787;53.364;-1.480;2024-03-25T09:33:04;13.77;;;6.20;;
21258;SDS011;10787;53.364;-1.480;2024-03-25T09:35:48;13.57;;;6.83;;
21258;SDS011;10787;53.364;-1.480;2024-03-25T09:38:32;13.83;;;6.93;;
21258;SDS011;10787;53.364;-1.480;2024-03-25T09:41:16;14.47;;;7.97;;
21258;SDS011;10787;53.364;-1.480;2024-03-25T09:44:00;18.50;;;8.87;;
21258;SDS011;10787;53.364;-1.480;2024-03-25T09:46:47;15.33;;;8.13;;
21258;SDS011;10787;53.364;-1.480;2024-03-25T09:49:31;15.73;;;8.77;;
21258;SDS011;10787;53.364;-1.480;2024-03-25T09:52:18;16.07;;;7.80;;
21258;SDS011;10787;53.364;-1.480;2024-03-25T09:55:03;16.87;;;8.53;;
21258;SDS011;10787;53.364;-1.480;2024-03-25T09:57:47;14.37;;;8.00;;
21258;SDS011;10787;53.364;-1.480;2024-03-25T10:00:32;16.07;;;9.10;;
21258;SDS011;10787;53.364;-1.480;2024-03-25T10:03:17;17.30;;;8.80;;
21258;SDS011;10787;53.364;-1.480;2024-03-25T10:06:01;16.63;;;8.57;;
21258;SDS011;10787;53.364;-1.480;2024-03-25T10:08:46;14.87;;;8.37;;
21258;SDS011;10787;53.364;-1.480;2024-03-25T10:11:30;15.27;;;8.70;;
21258;SDS011;10787;53.364;-1.480;2024-03-25T10:14:18;14.13;;;8.10;;
21258;SDS011;10787;53.364;-1.480;2024-03-25T10:17:03;13.97;;;8.40;;
21258;SDS011;10787;53.364;-1.480;2024-03-25T10:19:47;14.47;;;8.60;;
21258;SDS011;10787;53.364;-1.480;2024-03-25T10:22:40;14.07;;;7.97;;
21258;SDS011;10787;53.364;-1.480;2024-03-25T10:25:28;14.47;;;8.67;;
21258;SDS011;10787;53.364;-1.480;2024-03-25T10:28:13;17.30;;;9.20;;
21258;SDS011;10787;53.364;-1.480;2024-03-25T10:31:04;15.17;;;8.17;;
21258;SDS011;10787;53.364;-1.480;2024-03-25T10:33:49;12.67;;;8.00;;
21258;SDS011;10787;53.364;-1.480;2024-03-25T10:36:34;12.80;;;7.53;;
21258;SDS011;10787;53.364;-1.480;2024-03-25T10:39:18;12.77;;;7.30;;
21258;SDS011;10787;53.364;-1.480;2024-03-25T10:42:08;11.27;;;7.30;;
21258;SDS011;10787;53.364;-1.480;2024-03-25T10:44:57;11.93;;;7.77;;
21258;SDS011;10787;53.364;-1.480;2024-03-25T10:47:42;11.73;;;7.60;;
21258;SDS011;10787;53.364;-1.480;2024-03-25T10:50:28;10.23;;;7.13;;
21258;SDS011;10787;53.364;-1.480;2024-03-25T10:53:17;13.77;;;7.83;;
21258;SDS011;10787;53.364;-1.480;2024-03-25T10:56:02;12.80;;;7.40;;
21258;SDS011;10787;53.364;-1.480;2024-03-25T10:58:49;13.17;;;7.37;;
21258;SDS011;10787;53.364;-1.480;2024-03-25T11:01:33;11.33;;;6.90;;
21258;SDS011;10787;53.364;-1.480;2024-03-25T11:04:20;12.27;;;6.30;;
21258;SDS011;10787;53.364;-1.480;2024-03-25T11:07:08;11.70;;;6.00;;
21258;SDS011;10787;53.364;-1.480;2024-03-25T11:10:01;11.27;;;6.47;;
21258;SDS011;10787;53.364;-1.480;2024-03-25T11:12:50;9.90;;;6.40;;
21258;SDS011;10787;53.364;-1.480;2024-03-25T11:15:41;10.27;;;7.00;;
21258;SDS011;10787;53.364;-1.480;2024-03-25T11:18:29;11.40;;;6.70;;
21258;SDS011;10787;53.364;-1.480;2024-03-25T11:21:15;12.43;;;6.93;;
21258;SDS011;10787;53.364;-1.480;2024-03-25T11:24:08;12.40;;;7.20;;
21258;SDS011;10787;53.364;-1.480;2024-03-25T11:26:53;11.97;;;6.83;;
21258;SDS011;10787;53.364;-1.480;2024-03-25T11:29:37;12.70;;;7.60;;
21258;SDS011;10787;53.364;-1.480;2024-03-25T11:32:21;10.50;;;6.97;;
21258;SDS011;10787;53.364;-1.480;2024-03-25T11:35:05;12.53;;;7.47;;
21258;SDS011;10787;53.364;-1.480;2024-03-25T11:37:51;11.20;;;7.23;;
21258;SDS011;10787;53.364;-1.480;2024-03-25T11:40:35;11.00;;;6.93;;
21258;SDS011;10787;53.364;-1.480;2024-03-25T11:43:20;13.73;;;7.10;;
21258;SDS011;10787;53.364;-1.480;2024-03-25T11:46:06;10.67;;;6.90;;
21258;SDS011;10787;53.364;-1.480;2024-03-25T11:48:50;10.17;;;6.47;;
21258;SDS011;10787;53.364;-1.480;2024-03-25T11:51:34;12.57;;;6.73;;
21258;SDS011;10787;53.364;-1.480;2024-03-25T11:54:18;10.47;;;6.80;;
21258;SDS011;10787;53.364;-1.480;2024-03-25T11:57:03;10.87;;;6.47;;
21258;SDS011;10787;53.364;-1.480;2024-03-25T11:59:48;11.93;;;6.73;;
21258;SDS011;10787;53.364;-1.480;2024-03-25T12:02:32;12.30;;;7.13;;
21258;SDS011;10787;53.364;-1.480;2024-03-25T12:05:17;11.70;;;7.03;;
21258;SDS011;10787;53.364;-1.480;2024-03-25T12:08:02;13.20;;;6.57;;
21258;SDS011;10787;53.364;-1.480;2024-03-25T12:10:46;10.33;;;6.90;;
21258;SDS011;10787;53.364;-1.480;2024-03-25T12:13:49;12.57;;;6.77;;
21258;SDS011;10787;53.364;-1.480;2024-03-25T12:16:35;11.60;;;7.83;;
21258;SDS011;10787;53.364;-1.480;2024-03-25T12:19:19;14.53;;;7.33;;
21258;SDS011;10787;53.364;-1.480;2024-03-25T12:22:04;14.03;;;7.30;;
21258;SDS011;10787;53.364;-1.480;2024-03-25T12:24:48;12.87;;;7.33;;
21258;SDS011;10787;53.364;-1.480;2024-03-25T12:27:34;14.07;;;8.27;;
21258;SDS011;10787;53.364;-1.480;2024-03-25T12:30:19;13.20;;;7.97;;
21258;SDS011;10787;53.364;-1.480;2024-03-25T12:33:04;12.87;;;7.57;;
21258;SDS011;10787;53.364;-1.480;2024-03-25T12:35:51;15.37;;;7.90;;
21258;SDS011;10787;53.364;-1.480;2024-03-25T12:38:36;14.57;;;8.13;;
21258;SDS011;10787;53.364;-1.480;2024-03-25T12:41:21;11.50;;;7.73;;
21258;SDS011;10787;53.364;-1.480;2024-03-25T12:44:06;14.17;;;7.00;;
21258;SDS011;10787;53.364;-1.480;2024-03-25T12:46:51;10.73;;;7.23;;
21258;SDS011;10787;53.364;-1.480;2024-03-25T12:49:35;14.33;;;8.07;;
21258;SDS011;10787;53.364;-1.480;2024-03-25T12:52:19;12.60;;;7.80;;
21258;SDS011;10787;53.364;-1.480;2024-03-25T12:55:05;12.37;;;7.60;;
21258;SDS011;10787;53.364;-1.480;2024-03-25T12:57:49;14.00;;;8.27;;
21258;SDS011;10787;53.364;-1.480;2024-03-25T13:00:33;11.80;;;6.93;;
21258;SDS011;10787;53.364;-1.480;2024-03-25T13:03:18;12.20;;;6.70;;
21258;SDS011;10787;53.364;-1.480;2024-03-25T13:06:02;13.90;;;7.30;;
21258;SDS011;10787;53.364;-1.480;2024-03-25T13:08:47;11.80;;;6.93;;
21258;SDS011;10787;53.364;-1.480;2024-03-25T13:11:31;12.67;;;8.47;;
21258;SDS011;10787;53.364;-1.480;2024-03-25T13:14:15;11.83;;;6.73;;
21258;SDS011;10787;53.364;-1.480;2024-03-25T13:16:59;10.47;;;6.03;;
21258;SDS011;10787;53.364;-1.480;2024-03-25T13:19:43;11.47;;;6.57;;
21258;SDS011;10787;53.364;-1.480;2024-03-25T13:22:27;11.07;;;6.00;;
21258;SDS011;10787;53.364;-1.480;2024-03-25T13:25:14;9.83;;;6.20;;
21258;SDS011;10787;53.364;-1.480;2024-03-25T13:27:58;10.10;;;5.77;;
21258;SDS011;10787;53.364;-1.480;2024-03-25T13:30:42;12.30;;;6.07;;
21258;SDS011;10787;53.364;-1.480;2024-03-25T13:33:27;9.73;;;5.27;;
21258;SDS011;10787;53.364;-1.480;2024-03-25T13:36:11;8.47;;;5.63;;
21258;SDS011;10787;53.364;-1.480;2024-03-25T13:38:55;7.93;;;5.70;;
21258;SDS011;10787;53.364;-1.480;2024-03-25T13:41:40;12.23;;;6.50;;
21258;SDS011;10787;53.364;-1.480;2024-03-25T13:44:24;8.63;;;5.20;;
21258;SDS011;10787;53.364;-1.480;2024-03-25T13:47:08;8.17;;;4.93;;
21258;SDS011;10787;53.364;-1.480;2024-03-25T13:50:05;8.20;;;4.00;;
21258;SDS011;10787;53.364;-1.480;2024-03-25T13:52:53;6.23;;;3.57;;
21258;SDS011;10787;53.364;-1.480;2024-03-25T13:55:37;5.30;;;3.30;;
21258;SDS011;10787;53.364;-1.480;2024-03-25T13:58:21;7.37;;;3.20;;
21258;SDS011;10787;53.364;-1.480;2024-03-25T14:01:05;5.27;;;2.73;;
21258;SDS011;10787;53.364;-1.480;2024-03-25T14:03:53;6.77;;;3.00;;
21258;SDS011;10787;53.364;-1.480;2024-03-25T14:06:37;5.93;;;3.50;;
21258;SDS011;10787;53.364;-1.480;2024-03-25T14:09:23;6.07;;;3.47;;
21258;SDS011;10787;53.364;-1.480;2024-03-25T14:12:08;8.23;;;3.73;;
21258;SDS011;10787;53.364;-1.480;2024-03-25T14:14:52;6.57;;;4.10;;
21258;SDS011;10787;53.364;-1.480;2024-03-25T14:17:37;5.30;;;4.13;;
21258;SDS011;10787;53.364;-1.480;2024-03-25T14:20:21;6.53;;;3.93;;
21258;SDS011;10787;53.364;-1.480;2024-03-25T14:23:05;7.73;;;3.90;;
21258;SDS011;10787;53.364;-1.480;2024-03-25T14:25:50;5.20;;;3.60;;
21258;SDS011;10787;53.364;-1.480;2024-03-25T14:28:34;6.13;;;4.37;;
21258;SDS011;10787;53.364;-1.480;2024-03-25T14:31:20;6.97;;;4.30;;
21258;SDS011;10787;53.364;-1.480;2024-03-25T14:34:05;7.23;;;4.10;;
21258;SDS011;10787;53.364;-1.480;2024-03-25T14:36:48;8.87;;;4.30;;
21258;SDS011;10787;53.364;-1.480;2024-03-25T14:39:33;5.93;;;3.80;;
21258;SDS011;10787;53.364;-1.480;2024-03-25T14:42:17;7.77;;;4.07;;
21258;SDS011;10787;53.364;-1.480;2024-03-25T14:45:02;7.07;;;4.20;;
21258;SDS011;10787;53.364;-1.480;2024-03-25T14:47:46;7.23;;;3.70;;
21258;SDS011;10787;53.364;-1.480;2024-03-25T14:50:31;5.90;;;4.00;;
21258;SDS011;10787;53.364;-1.480;2024-03-25T14:53:15;8.63;;;4.53;;
21258;SDS011;10787;53.364;-1.480;2024-03-25T14:55:59;7.10;;;4.50;;
21258;SDS011;10787;53.364;-1.480;2024-03-25T14:58:43;7.67;;;5.00;;
21258;SDS011;10787;53.364;-1.480;2024-03-25T15:01:28;9.37;;;5.30;;
21258;SDS011;10787;53.364;-1.480;2024-03-25T15:04:15;8.23;;;4.90;;
21258;SDS011;10787;53.364;-1.480;2024-03-25T15:06:59;10.73;;;4.57;;
21258;SDS011;10787;53.364;-1.480;2024-03-25T15:09:43;11.73;;;6.13;;
21258;SDS011;10787;53.364;-1.480;2024-03-25T15:12:27;10.90;;;5.67;;
21258;SDS011;10787;53.364;-1.480;2024-03-25T15:15:11;8.57;;;4.90;;
21258;SDS011;10787;53.364;-1.480;2024-03-25T15:17:55;8.87;;;4.90;;
21258;SDS011;10787;53.364;-1.480;2024-03-25T15:20:39;8.83;;;4.33;;
21258;SDS011;10787;53.364;-1.480;2024-03-25T15:23:23;7.33;;;4.20;;
21258;SDS011;10787;53.364;-1.480;2024-03-25T15:26:07;7.67;;;4.70;;
21258;SDS011;10787;53.364;-1.480;2024-03-25T15:28:51;8.13;;;4.20;;
21258;SDS011;10787;53.364;-1.480;2024-03-25T15:31:35;6.50;;;4.03;;
21258;SDS011;10787;53.364;-1.480;2024-03-25T15:34:19;10.07;;;4.50;;
21258;SDS011;10787;53.364;-1.480;2024-03-25T15:37:05;9.23;;;4.00;;
21258;SDS011;10787;53.364;-1.480;2024-03-25T15:39:49;6.63;;;3.90;;
21258;SDS011;10787;53.364;-1.480;2024-03-25T15:42:33;6.67;;;3.87;;
21258;SDS011;10787;53.364;-1.480;2024-03-25T15:45:17;7.90;;;4.10;;
21258;SDS011;10787;53.364;-1.480;2024-03-25T15:48:01;8.80;;;3.57;;
21258;SDS011;10787;53.364;-1.480;2024-03-25T15:50:47;9.17;;;4.10;;
21258;SDS011;10787;53.364;-1.480;2024-03-25T15:53:31;7.57;;;4.00;;
21258;SDS011;10787;53.364;-1.480;2024-03-25T15:56:15;10.20;;;4.50;;
21258;SDS011;10787;53.364;-1.480;2024-03-25T15:58:59;7.90;;;4.13;;
21258;SDS011;10787;53.364;-1.480;2024-03-25T16:01:43;6.87;;;4.27;;
21258;SDS011;10787;53.364;-1.480;2024-03-25T16:04:28;10.07;;;4.47;;
21258;SDS011;10787;53.364;-1.480;2024-03-25T16:07:13;11.07;;;4.80;;